Overview Statistics Trail Chart Weather Telemetry Raw packets
 

This is the latest recevied weather packets stored in our database for station/object KGRR-WX. If no packets are shown the sender has not sent any weather packets the latest 10 day(s).

<< 33 34 35 36 37 >>
Time Temp. Humidity Pressure Rain* Wind** Luminosity Snow
1787811305 16.67° C 92% 983.9 hPa 0 mm - - -
1787810405 16.67° C 92% 983.9 hPa 0 mm - - -
1787809505 17.22° C 89% 983.6 hPa 0 mm - - -
1787808607 17.22° C 89% 983.6 hPa 0 mm - - -
1787807706 17.22° C 89% 983.6 hPa 0 mm - - -
1787806806 17.22° C 89% 983.6 hPa 0 mm - - -
1787805906 17.78° C 88% 983.2 hPa 0 mm - - -
1787805004 17.78° C 88% 983.6 hPa 0 mm - - -
1787804105 17.78° C 88% 983.6 hPa 0 mm - - -
1787803206 18.33° C 88% 983.6 hPa 0 mm - - -
1787802305 18.33° C 87% 983.7 hPa 0 mm - - -
1787801411 18.33° C 87% 983.9 hPa 0 mm - - -
1787800505 18.89° C 87% 983.9 hPa 0 mm - - -
1787799606 18.89° C 87% 983.9 hPa 0 mm - - -
1787798710 18.89° C 83% 983.3 hPa 0 mm - - -
1787797806 19.44° C 82% 984.4 hPa 0 mm - - -
1787796911 19.44° C 82% 983.8 hPa 0 mm - - -
1787796012 18.89° C 83% 983.8 hPa 0 mm - - -
1787795104 20° C 76% 983.9 hPa 0 mm - - -
1787794211 20° C 76% 983.9 hPa 0 mm - - -
1787793306 20° C 76% 984 hPa 0 mm - - -
1787792409 20° C 76% 984 hPa 0 mm - - -
1787791510 20.56° C 67% 983.8 hPa 0 mm - - -
1787790605 21.11° C 67% 983.8 hPa 0 mm - - -
1787789710 21.67° C 67% 983.8 hPa 0 mm - - -

* Rain latest hour (hover to see other rain measurements)
** Current wind speed in m/s (hover to see current wind gust speed)